sensor_id;sensor_type;location;lat;lon;timestamp;temperature;humidity
68609;SHT31;55581;46.718;7.690;2023-06-22T00:01:58;19.82;75.68
68609;SHT31;55581;46.718;7.690;2023-06-22T00:04:23;19.78;75.55
68609;SHT31;55581;46.718;7.690;2023-06-22T00:06:49;19.77;75.36
68609;SHT31;55581;46.718;7.690;2023-06-22T00:09:14;19.78;75.80
68609;SHT31;55581;46.718;7.690;2023-06-22T00:11:40;19.68;75.86
68609;SHT31;55581;46.718;7.690;2023-06-22T00:14:05;19.71;75.99
68609;SHT31;55581;46.718;7.690;2023-06-22T00:16:34;19.75;76.08
68609;SHT31;55581;46.718;7.690;2023-06-22T00:19:00;19.69;76.24
68609;SHT31;55581;46.718;7.690;2023-06-22T00:21:29;19.75;75.87
68609;SHT31;55581;46.718;7.690;2023-06-22T00:23:54;19.75;76.51
68609;SHT31;55581;46.718;7.690;2023-06-22T00:26:21;19.74;76.31
68609;SHT31;55581;46.718;7.690;2023-06-22T00:28:47;19.71;76.29
68609;SHT31;55581;46.718;7.690;2023-06-22T00:31:15;19.75;76.73
68609;SHT31;55581;46.718;7.690;2023-06-22T00:33:40;19.64;77.24
68609;SHT31;55581;46.718;7.690;2023-06-22T00:36:10;19.60;77.31
68609;SHT31;55581;46.718;7.690;2023-06-22T00:38:38;19.60;77.98
68609;SHT31;55581;46.718;7.690;2023-06-22T00:41:05;19.50;77.74
68609;SHT31;55581;46.718;7.690;2023-06-22T00:43:30;19.47;77.84
68609;SHT31;55581;46.718;7.690;2023-06-22T00:45:56;19.43;77.88
68609;SHT31;55581;46.718;7.690;2023-06-22T00:48:22;19.50;76.99
68609;SHT31;55581;46.718;7.690;2023-06-22T00:50:47;19.48;77.42
68609;SHT31;55581;46.718;7.690;2023-06-22T00:53:16;19.50;76.87
68609;SHT31;55581;46.718;7.690;2023-06-22T00:55:44;19.54;77.15
68609;SHT31;55581;46.718;7.690;2023-06-22T00:58:12;19.50;77.58
68609;SHT31;55581;46.718;7.690;2023-06-22T01:00:39;19.51;76.97
68609;SHT31;55581;46.718;7.690;2023-06-22T01:03:06;19.51;76.61
68609;SHT31;55581;46.718;7.690;2023-06-22T01:05:36;19.54;76.40
68609;SHT31;55581;46.718;7.690;2023-06-22T01:10:51;19.58;76.21
68609;SHT31;55581;46.718;7.690;2023-06-22T01:14:03;19.57;76.96
68609;SHT31;55581;46.718;7.690;2023-06-22T01:16:31;19.58;76.25
68609;SHT31;55581;46.718;7.690;2023-06-22T01:19:01;19.57;76.73
68609;SHT31;55581;46.718;7.690;2023-06-22T01:21:33;19.60;76.76
68609;SHT31;55581;46.718;7.690;2023-06-22T01:29:00;19.85;75.60
68609;SHT31;55581;46.718;7.690;2023-06-22T01:31:29;20.00;74.00
68609;SHT31;55581;46.718;7.690;2023-06-22T01:33:59;20.16;73.51
68609;SHT31;55581;46.718;7.690;2023-06-22T01:36:26;20.39;73.08
68609;SHT31;55581;46.718;7.690;2023-06-22T01:38:56;20.54;72.91
68609;SHT31;55581;46.718;7.690;2023-06-22T01:41:25;20.55;72.96
68609;SHT31;55581;46.718;7.690;2023-06-22T01:43:52;20.52;73.36
68609;SHT31;55581;46.718;7.690;2023-06-22T01:46:18;20.44;74.09
68609;SHT31;55581;46.718;7.690;2023-06-22T01:48:47;20.34;75.07
68609;SHT31;55581;46.718;7.690;2023-06-22T01:51:16;20.26;75.08
68609;SHT31;55581;46.718;7.690;2023-06-22T01:53:41;20.16;75.78
68609;SHT31;55581;46.718;7.690;2023-06-22T01:56:07;20.12;76.03
68609;SHT31;55581;46.718;7.690;2023-06-22T01:58:33;20.04;76.48
68609;SHT31;55581;46.718;7.690;2023-06-22T02:01:11;19.99;76.17
68609;SHT31;55581;46.718;7.690;2023-06-22T02:06:57;19.67;76.45
68609;SHT31;55581;46.718;7.690;2023-06-22T02:09:28;19.62;77.31
68609;SHT31;55581;46.718;7.690;2023-06-22T02:11:55;19.60;76.84
68609;SHT31;55581;46.718;7.690;2023-06-22T02:14:22;19.47;77.35
68609;SHT31;55581;46.718;7.690;2023-06-22T02:16:50;19.51;77.58
68609;SHT31;55581;46.718;7.690;2023-06-22T02:19:16;19.54;76.88
68609;SHT31;55581;46.718;7.690;2023-06-22T02:21:43;19.57;77.16
68609;SHT31;55581;46.718;7.690;2023-06-22T02:24:09;19.62;77.28
68609;SHT31;55581;46.718;7.690;2023-06-22T02:26:34;19.54;77.63
68609;SHT31;55581;46.718;7.690;2023-06-22T02:29:00;19.47;77.78
68609;SHT31;55581;46.718;7.690;2023-06-22T02:31:26;19.54;76.78
68609;SHT31;55581;46.718;7.690;2023-06-22T02:33:58;19.57;76.77
68609;SHT31;55581;46.718;7.690;2023-06-22T02:36:26;19.54;76.95
68609;SHT31;55581;46.718;7.690;2023-06-22T02:38:55;19.57;76.78
68609;SHT31;55581;46.718;7.690;2023-06-22T02:41:26;19.68;76.18
68609;SHT31;55581;46.718;7.690;2023-06-22T02:43:54;19.58;76.58
68609;SHT31;55581;46.718;7.690;2023-06-22T02:46:20;19.53;76.46
68609;SHT31;55581;46.718;7.690;2023-06-22T02:48:45;19.38;76.71
68609;SHT31;55581;46.718;7.690;2023-06-22T02:51:13;19.37;76.72
68609;SHT31;55581;46.718;7.690;2023-06-22T02:53:40;19.34;77.79
68609;SHT31;55581;46.718;7.690;2023-06-22T02:56:09;19.38;77.73
68609;SHT31;55581;46.718;7.690;2023-06-22T02:58:35;19.30;77.44
68609;SHT31;55581;46.718;7.690;2023-06-22T03:01:05;19.26;77.29
68609;SHT31;55581;46.718;7.690;2023-06-22T03:03:33;19.23;77.41
68609;SHT31;55581;46.718;7.690;2023-06-22T03:05:58;19.20;77.95
68609;SHT31;55581;46.718;7.690;2023-06-22T03:08:25;19.22;78.29
68609;SHT31;55581;46.718;7.690;2023-06-22T03:10:51;19.24;78.05
68609;SHT31;55581;46.718;7.690;2023-06-22T03:13:16;19.26;78.07
68609;SHT31;55581;46.718;7.690;2023-06-22T03:15:42;19.22;77.77
68609;SHT31;55581;46.718;7.690;2023-06-22T03:18:07;19.26;77.44
68609;SHT31;55581;46.718;7.690;2023-06-22T03:20:32;19.20;77.30
68609;SHT31;55581;46.718;7.690;2023-06-22T03:22:59;19.10;77.39
68609;SHT31;55581;46.718;7.690;2023-06-22T03:25:24;19.09;77.74
68609;SHT31;55581;46.718;7.690;2023-06-22T03:27:49;19.06;77.99
68609;SHT31;55581;46.718;7.690;2023-06-22T03:30:15;19.10;77.50
68609;SHT31;55581;46.718;7.690;2023-06-22T03:32:41;19.03;77.23
68609;SHT31;55581;46.718;7.690;2023-06-22T03:35:08;19.00;77.86
68609;SHT31;55581;46.718;7.690;2023-06-22T03:37:33;19.02;78.53
68609;SHT31;55581;46.718;7.690;2023-06-22T03:39:59;18.91;78.14
68609;SHT31;55581;46.718;7.690;2023-06-22T03:42:25;18.98;78.26
68609;SHT31;55581;46.718;7.690;2023-06-22T03:44:51;18.92;77.76
68609;SHT31;55581;46.718;7.690;2023-06-22T03:47:17;18.91;78.13
68609;SHT31;55581;46.718;7.690;2023-06-22T03:49:42;18.93;78.36
68609;SHT31;55581;46.718;7.690;2023-06-22T03:52:07;18.84;78.33
68609;SHT31;55581;46.718;7.690;2023-06-22T03:54:34;18.85;78.15
68609;SHT31;55581;46.718;7.690;2023-06-22T03:56:59;18.88;78.14
68609;SHT31;55581;46.718;7.690;2023-06-22T03:59:25;18.88;78.14
68609;SHT31;55581;46.718;7.690;2023-06-22T04:01:50;18.95;78.22
68609;SHT31;55581;46.718;7.690;2023-06-22T04:04:17;18.93;77.97
68609;SHT31;55581;46.718;7.690;2023-06-22T04:06:43;18.86;77.89
68609;SHT31;55581;46.718;7.690;2023-06-22T04:09:08;18.89;77.66
68609;SHT31;55581;46.718;7.690;2023-06-22T04:11:35;18.96;77.05
68609;SHT31;55581;46.718;7.690;2023-06-22T04:14:00;19.00;77.45
68609;SHT31;55581;46.718;7.690;2023-06-22T04:16:26;19.05;77.17
68609;SHT31;55581;46.718;7.690;2023-06-22T04:18:52;19.05;76.69
68609;SHT31;55581;46.718;7.690;2023-06-22T04:21:17;19.12;76.56
68609;SHT31;55581;46.718;7.690;2023-06-22T04:23:45;19.12;76.27
68609;SHT31;55581;46.718;7.690;2023-06-22T04:26:13;19.22;76.12
68609;SHT31;55581;46.718;7.690;2023-06-22T04:28:41;19.27;76.28
68609;SHT31;55581;46.718;7.690;2023-06-22T04:31:08;19.30;76.52
68609;SHT31;55581;46.718;7.690;2023-06-22T04:33:34;19.35;76.50
68609;SHT31;55581;46.718;7.690;2023-06-22T04:35:59;19.41;75.41
68609;SHT31;55581;46.718;7.690;2023-06-22T04:38:30;19.48;77.20
68609;SHT31;55581;46.718;7.690;2023-06-22T04:40:58;19.46;77.94
68609;SHT31;55581;46.718;7.690;2023-06-22T04:43:23;19.41;78.85
68609;SHT31;55581;46.718;7.690;2023-06-22T04:45:49;19.43;78.88
68609;SHT31;55581;46.718;7.690;2023-06-22T04:48:17;19.47;79.04
68609;SHT31;55581;46.718;7.690;2023-06-22T04:50:43;19.54;79.73
68609;SHT31;55581;46.718;7.690;2023-06-22T04:53:09;19.47;81.17
68609;SHT31;55581;46.718;7.690;2023-06-22T04:55:38;19.51;80.53
68609;SHT31;55581;46.718;7.690;2023-06-22T04:58:07;19.47;80.07
68609;SHT31;55581;46.718;7.690;2023-06-22T05:00:34;19.46;80.35
68609;SHT31;55581;46.718;7.690;2023-06-22T05:03:02;19.40;79.70
68609;SHT31;55581;46.718;7.690;2023-06-22T05:05:30;19.33;81.27
68609;SHT31;55581;46.718;7.690;2023-06-22T05:07:56;19.16;81.72
68609;SHT31;55581;46.718;7.690;2023-06-22T05:10:25;19.09;81.46
68609;SHT31;55581;46.718;7.690;2023-06-22T05:12:51;18.93;82.31
68609;SHT31;55581;46.718;7.690;2023-06-22T05:15:16;18.85;82.43
68609;SHT31;55581;46.718;7.690;2023-06-22T05:17:44;18.86;82.34
68609;SHT31;55581;46.718;7.690;2023-06-22T05:20:11;18.89;82.00
68609;SHT31;55581;46.718;7.690;2023-06-22T05:22:37;18.89;82.35
68609;SHT31;55581;46.718;7.690;2023-06-22T05:25:07;18.92;82.44
68609;SHT31;55581;46.718;7.690;2023-06-22T05:27:33;18.92;82.44
68609;SHT31;55581;46.718;7.690;2023-06-22T05:29:58;18.96;82.31
68609;SHT31;55581;46.718;7.690;2023-06-22T05:32:24;19.00;82.38
68609;SHT31;55581;46.718;7.690;2023-06-22T05:34:52;19.10;82.28
68609;SHT31;55581;46.718;7.690;2023-06-22T05:37:18;19.24;81.64
68609;SHT31;55581;46.718;7.690;2023-06-22T05:39:43;19.33;81.43
68609;SHT31;55581;46.718;7.690;2023-06-22T05:42:09;19.46;81.28
68609;SHT31;55581;46.718;7.690;2023-06-22T05:44:34;19.62;80.50
68609;SHT31;55581;46.718;7.690;2023-06-22T05:46:59;19.81;79.79
68609;SHT31;55581;46.718;7.690;2023-06-22T05:49:25;19.85;78.23
68609;SHT31;55581;46.718;7.690;2023-06-22T05:51:57;20.13;77.62
68609;SHT31;55581;46.718;7.690;2023-06-22T05:54:23;20.16;76.61
68609;SHT31;55581;46.718;7.690;2023-06-22T05:56:49;20.43;76.88
68609;SHT31;55581;46.718;7.690;2023-06-22T05:59:17;20.45;76.60
68609;SHT31;55581;46.718;7.690;2023-06-22T06:01:45;20.27;77.62
68609;SHT31;55581;46.718;7.690;2023-06-22T06:04:18;20.37;77.54
68609;SHT31;55581;46.718;7.690;2023-06-22T06:06:45;20.45;77.39
68609;SHT31;55581;46.718;7.690;2023-06-22T06:09:13;20.51;77.55
68609;SHT31;55581;46.718;7.690;2023-06-22T06:11:39;20.58;77.39
68609;SHT31;55581;46.718;7.690;2023-06-22T06:14:07;20.60;77.46
68609;SHT31;55581;46.718;7.690;2023-06-22T06:16:32;20.55;77.20
68609;SHT31;55581;46.718;7.690;2023-06-22T06:18:59;20.47;77.92
68609;SHT31;55581;46.718;7.690;2023-06-22T06:21:25;20.40;77.60
68609;SHT31;55581;46.718;7.690;2023-06-22T06:23:55;20.27;77.69
68609;SHT31;55581;46.718;7.690;2023-06-22T06:26:21;20.24;78.41
68609;SHT31;55581;46.718;7.690;2023-06-22T06:28:54;20.22;78.64
68609;SHT31;55581;46.718;7.690;2023-06-22T06:31:21;20.27;77.99
68609;SHT31;55581;46.718;7.690;2023-06-22T06:33:50;20.23;77.82
68609;SHT31;55581;46.718;7.690;2023-06-22T06:36:16;20.30;77.85
68609;SHT31;55581;46.718;7.690;2023-06-22T06:38:41;20.37;78.60
68609;SHT31;55581;46.718;7.690;2023-06-22T06:41:07;20.51;78.19
68609;SHT31;55581;46.718;7.690;2023-06-22T06:43:32;20.67;78.61
68609;SHT31;55581;46.718;7.690;2023-06-22T06:45:57;20.75;76.20
68609;SHT31;55581;46.718;7.690;2023-06-22T06:48:23;20.78;75.46
68609;SHT31;55581;46.718;7.690;2023-06-22T06:50:48;21.02;73.72
68609;SHT31;55581;46.718;7.690;2023-06-22T06:53:15;21.25;74.39
68609;SHT31;55581;46.718;7.690;2023-06-22T06:55:41;21.44;73.83
68609;SHT31;55581;46.718;7.690;2023-06-22T06:58:06;21.60;74.62
68609;SHT31;55581;46.718;7.690;2023-06-22T07:00:34;21.70;74.39
68609;SHT31;55581;46.718;7.690;2023-06-22T07:03:02;22.02;73.49
68609;SHT31;55581;46.718;7.690;2023-06-22T07:05:27;22.39;71.93
68609;SHT31;55581;46.718;7.690;2023-06-22T07:07:52;22.78;70.03
68609;SHT31;55581;46.718;7.690;2023-06-22T07:10:18;23.09;69.42
68609;SHT31;55581;46.718;7.690;2023-06-22T07:12:44;23.26;68.27
68609;SHT31;55581;46.718;7.690;2023-06-22T07:15:11;23.50;67.09
68609;SHT31;55581;46.718;7.690;2023-06-22T07:17:38;23.62;66.23
68609;SHT31;55581;46.718;7.690;2023-06-22T07:20:07;23.56;65.48
68609;SHT31;55581;46.718;7.690;2023-06-22T07:22:39;23.53;65.27
68609;SHT31;55581;46.718;7.690;2023-06-22T07:25:05;23.59;65.03
68609;SHT31;55581;46.718;7.690;2023-06-22T07:28:01;23.55;64.94
68609;SHT31;55581;46.718;7.690;2023-06-22T07:30:28;23.74;64.80
68609;SHT31;55581;46.718;7.690;2023-06-22T07:32:54;23.83;64.90
68609;SHT31;55581;46.718;7.690;2023-06-22T07:35:19;23.88;63.81
68609;SHT31;55581;46.718;7.690;2023-06-22T07:37:49;23.94;62.44
68609;SHT31;55581;46.718;7.690;2023-06-22T07:40:15;23.91;64.58
68609;SHT31;55581;46.718;7.690;2023-06-22T07:42:40;24.01;65.13
68609;SHT31;55581;46.718;7.690;2023-06-22T07:45:06;23.84;63.33
68609;SHT31;55581;46.718;7.690;2023-06-22T07:47:34;23.87;62.04
68609;SHT31;55581;46.718;7.690;2023-06-22T07:50:01;23.93;62.75
68609;SHT31;55581;46.718;7.690;2023-06-22T07:52:28;23.91;67.88
68609;SHT31;55581;46.718;7.690;2023-06-22T07:54:53;23.73;66.46
68609;SHT31;55581;46.718;7.690;2023-06-22T07:57:19;23.74;67.04
68609;SHT31;55581;46.718;7.690;2023-06-22T07:59:46;23.73;69.09
68609;SHT31;55581;46.718;7.690;2023-06-22T08:02:12;23.55;70.63
68609;SHT31;55581;46.718;7.690;2023-06-22T08:04:40;23.38;70.18
68609;SHT31;55581;46.718;7.690;2023-06-22T08:07:06;23.36;71.95
68609;SHT31;55581;46.718;7.690;2023-06-22T08:09:32;23.38;71.83
68609;SHT31;55581;46.718;7.690;2023-06-22T08:11:58;23.47;72.06
68609;SHT31;55581;46.718;7.690;2023-06-22T08:14:27;23.64;66.34
68609;SHT31;55581;46.718;7.690;2023-06-22T08:16:53;23.88;65.61
68609;SHT31;55581;46.718;7.690;2023-06-22T08:19:18;23.81;68.65
68609;SHT31;55581;46.718;7.690;2023-06-22T08:21:44;23.88;65.03
68609;SHT31;55581;46.718;7.690;2023-06-22T08:24:09;24.12;62.94
68609;SHT31;55581;46.718;7.690;2023-06-22T08:26:36;24.35;63.60
68609;SHT31;55581;46.718;7.690;2023-06-22T08:29:05;24.57;62.68
68609;SHT31;55581;46.718;7.690;2023-06-22T08:31:31;24.80;62.39
68609;SHT31;55581;46.718;7.690;2023-06-22T08:34:00;24.91;61.10
68609;SHT31;55581;46.718;7.690;2023-06-22T08:36:25;24.80;63.77
68609;SHT31;55581;46.718;7.690;2023-06-22T08:38:54;24.67;64.65
68609;SHT31;55581;46.718;7.690;2023-06-22T08:41:25;24.83;63.06
68609;SHT31;55581;46.718;7.690;2023-06-22T08:43:50;24.77;62.79
68609;SHT31;55581;46.718;7.690;2023-06-22T08:46:19;24.62;64.28
68609;SHT31;55581;46.718;7.690;2023-06-22T08:48:48;24.72;64.11
68609;SHT31;55581;46.718;7.690;2023-06-22T08:51:14;24.77;64.29
68609;SHT31;55581;46.718;7.690;2023-06-22T08:53:39;24.69;65.20
68609;SHT31;55581;46.718;7.690;2023-06-22T08:56:05;24.86;63.02
68609;SHT31;55581;46.718;7.690;2023-06-22T08:58:30;24.94;61.05
68609;SHT31;55581;46.718;7.690;2023-06-22T09:00:55;25.10;59.35
68609;SHT31;55581;46.718;7.690;2023-06-22T09:03:21;24.97;60.76
68609;SHT31;55581;46.718;7.690;2023-06-22T09:05:46;24.97;60.54
68609;SHT31;55581;46.718;7.690;2023-06-22T09:08:14;24.97;61.52
68609;SHT31;55581;46.718;7.690;2023-06-22T09:10:39;24.95;61.70
68609;SHT31;55581;46.718;7.690;2023-06-22T09:13:05;25.17;60.49
68609;SHT31;55581;46.718;7.690;2023-06-22T09:15:31;25.24;60.34
68609;SHT31;55581;46.718;7.690;2023-06-22T09:17:57;25.43;60.53
68609;SHT31;55581;46.718;7.690;2023-06-22T09:20:22;25.41;61.07
68609;SHT31;55581;46.718;7.690;2023-06-22T09:22:48;25.50;60.63
68609;SHT31;55581;46.718;7.690;2023-06-22T09:25:13;25.50;60.99
68609;SHT31;55581;46.718;7.690;2023-06-22T09:27:39;25.69;59.24
68609;SHT31;55581;46.718;7.690;2023-06-22T09:30:06;25.73;58.72
68609;SHT31;55581;46.718;7.690;2023-06-22T09:32:31;25.83;58.03
68609;SHT31;55581;46.718;7.690;2023-06-22T09:34:57;25.82;59.30
68609;SHT31;55581;46.718;7.690;2023-06-22T09:37:22;25.92;58.39
68609;SHT31;55581;46.718;7.690;2023-06-22T09:39:48;26.04;57.78
68609;SHT31;55581;46.718;7.690;2023-06-22T09:42:13;26.41;58.17
68609;SHT31;55581;46.718;7.690;2023-06-22T09:44:39;26.68;57.74
68609;SHT31;55581;46.718;7.690;2023-06-22T09:47:04;26.94;55.91
68609;SHT31;55581;46.718;7.690;2023-06-22T09:49:30;27.33;57.12
68609;SHT31;55581;46.718;7.690;2023-06-22T09:51:57;27.26;56.76
68609;SHT31;55581;46.718;7.690;2023-06-22T09:54:23;27.37;54.96
68609;SHT31;55581;46.718;7.690;2023-06-22T09:56:48;27.17;55.32
68609;SHT31;55581;46.718;7.690;2023-06-22T09:59:13;27.08;54.28
68609;SHT31;55581;46.718;7.690;2023-06-22T10:01:39;26.92;54.28
68609;SHT31;55581;46.718;7.690;2023-06-22T10:04:04;26.76;54.79
68609;SHT31;55581;46.718;7.690;2023-06-22T10:06:30;26.78;56.25
68609;SHT31;55581;46.718;7.690;2023-06-22T10:08:55;26.80;56.19
68609;SHT31;55581;46.718;7.690;2023-06-22T10:11:20;26.60;56.29
68609;SHT31;55581;46.718;7.690;2023-06-22T10:13:54;26.56;57.22
68609;SHT31;55581;46.718;7.690;2023-06-22T10:16:29;26.44;56.21
68609;SHT31;55581;46.718;7.690;2023-06-22T10:18:55;26.55;56.65
68609;SHT31;55581;46.718;7.690;2023-06-22T10:21:20;26.63;57.75
68609;SHT31;55581;46.718;7.690;2023-06-22T10:23:45;26.51;56.99
68609;SHT31;55581;46.718;7.690;2023-06-22T10:26:11;26.34;59.92
68609;SHT31;55581;46.718;7.690;2023-06-22T10:28:36;26.39;61.25
68609;SHT31;55581;46.718;7.690;2023-06-22T10:31:02;26.17;58.88
68609;SHT31;55581;46.718;7.690;2023-06-22T10:33:27;26.08;59.92
68609;SHT31;55581;46.718;7.690;2023-06-22T10:35:53;25.97;59.33
68609;SHT31;55581;46.718;7.690;2023-06-22T10:38:18;26.01;60.97
68609;SHT31;55581;46.718;7.690;2023-06-22T10:40:46;25.98;61.67
68609;SHT31;55581;46.718;7.690;2023-06-22T10:43:11;25.62;59.34
68609;SHT31;55581;46.718;7.690;2023-06-22T10:45:39;25.56;60.84
68609;SHT31;55581;46.718;7.690;2023-06-22T10:48:04;25.49;61.92
68609;SHT31;55581;46.718;7.690;2023-06-22T10:50:30;25.56;62.42
68609;SHT31;55581;46.718;7.690;2023-06-22T10:52:55;25.65;63.52
68609;SHT31;55581;46.718;7.690;2023-06-22T10:55:21;25.63;62.68
68609;SHT31;55581;46.718;7.690;2023-06-22T10:57:46;25.48;58.78
68609;SHT31;55581;46.718;7.690;2023-06-22T11:00:13;25.27;59.19
68609;SHT31;55581;46.718;7.690;2023-06-22T11:02:39;25.17;61.66
68609;SHT31;55581;46.718;7.690;2023-06-22T11:05:07;25.01;61.14
68609;SHT31;55581;46.718;7.690;2023-06-22T11:07:37;24.95;63.69
68609;SHT31;55581;46.718;7.690;2023-06-22T11:10:03;24.79;65.03
68609;SHT31;55581;46.718;7.690;2023-06-22T11:12:28;24.82;65.63
68609;SHT31;55581;46.718;7.690;2023-06-22T11:14:54;24.87;64.37
68609;SHT31;55581;46.718;7.690;2023-06-22T11:17:22;24.77;66.62
68609;SHT31;55581;46.718;7.690;2023-06-22T11:19:47;24.66;67.16
68609;SHT31;55581;46.718;7.690;2023-06-22T11:22:13;24.56;65.16
68609;SHT31;55581;46.718;7.690;2023-06-22T11:24:38;24.53;66.95
68609;SHT31;55581;46.718;7.690;2023-06-22T11:27:04;24.48;65.90
68609;SHT31;55581;46.718;7.690;2023-06-22T11:29:29;24.55;67.21
68609;SHT31;55581;46.718;7.690;2023-06-22T11:31:56;24.66;65.43
68609;SHT31;55581;46.718;7.690;2023-06-22T11:34:21;24.76;65.64
68609;SHT31;55581;46.718;7.690;2023-06-22T11:36:46;24.73;67.15
68609;SHT31;55581;46.718;7.690;2023-06-22T11:39:13;24.63;67.46
68609;SHT31;55581;46.718;7.690;2023-06-22T11:41:40;24.51;67.43
68609;SHT31;55581;46.718;7.690;2023-06-22T11:44:05;24.40;68.23
68609;SHT31;55581;46.718;7.690;2023-06-22T11:46:32;24.40;68.31
68609;SHT31;55581;46.718;7.690;2023-06-22T11:48:57;24.28;70.05
68609;SHT31;55581;46.718;7.690;2023-06-22T11:51:23;24.17;70.44
68609;SHT31;55581;46.718;7.690;2023-06-22T11:53:48;24.22;69.45
68609;SHT31;55581;46.718;7.690;2023-06-22T11:56:16;24.25;68.06
68609;SHT31;55581;46.718;7.690;2023-06-22T11:58:41;24.42;65.27
68609;SHT31;55581;46.718;7.690;2023-06-22T12:01:07;24.76;63.41
68609;SHT31;55581;46.718;7.690;2023-06-22T12:03:32;25.18;60.48
68609;SHT31;55581;46.718;7.690;2023-06-22T12:05:59;25.70;58.47
68609;SHT31;55581;46.718;7.690;2023-06-22T12:08:26;26.11;56.96
68609;SHT31;55581;46.718;7.690;2023-06-22T12:10:52;26.45;56.36
68609;SHT31;55581;46.718;7.690;2023-06-22T12:13:19;26.58;57.20
68609;SHT31;55581;46.718;7.690;2023-06-22T12:15:44;26.51;57.45
68609;SHT31;55581;46.718;7.690;2023-06-22T12:18:12;26.59;57.23
68609;SHT31;55581;46.718;7.690;2023-06-22T12:20:40;26.47;57.19
68609;SHT31;55581;46.718;7.690;2023-06-22T12:23:05;26.44;56.12
68609;SHT31;55581;46.718;7.690;2023-06-22T12:25:31;26.44;55.57
68609;SHT31;55581;46.718;7.690;2023-06-22T12:27:56;26.34;57.86
68609;SHT31;55581;46.718;7.690;2023-06-22T12:30:22;26.30;57.59
68609;SHT31;55581;46.718;7.690;2023-06-22T12:32:47;26.24;57.47
68609;SHT31;55581;46.718;7.690;2023-06-22T12:35:12;26.04;56.61
68609;SHT31;55581;46.718;7.690;2023-06-22T12:37:43;25.89;56.96
68609;SHT31;55581;46.718;7.690;2023-06-22T12:40:09;25.82;58.21
68609;SHT31;55581;46.718;7.690;2023-06-22T12:42:35;25.67;58.22
68609;SHT31;55581;46.718;7.690;2023-06-22T12:45:00;25.56;58.64
68609;SHT31;55581;46.718;7.690;2023-06-22T12:47:26;25.46;59.35
68609;SHT31;55581;46.718;7.690;2023-06-22T12:49:51;25.41;62.29
68609;SHT31;55581;46.718;7.690;2023-06-22T12:52:16;25.34;64.57
68609;SHT31;55581;46.718;7.690;2023-06-22T12:54:42;25.10;63.14
68609;SHT31;55581;46.718;7.690;2023-06-22T12:57:07;24.83;70.26
68609;SHT31;55581;46.718;7.690;2023-06-22T12:59:33;24.43;71.60
68609;SHT31;55581;46.718;7.690;2023-06-22T13:01:59;24.38;66.95
68609;SHT31;55581;46.718;7.690;2023-06-22T13:04:24;24.19;66.33
68609;SHT31;55581;46.718;7.690;2023-06-22T13:06:49;24.17;69.37
68609;SHT31;55581;46.718;7.690;2023-06-22T13:09:17;24.05;73.37
68609;SHT31;55581;46.718;7.690;2023-06-22T13:11:43;23.87;68.87
68609;SHT31;55581;46.718;7.690;2023-06-22T13:14:09;23.84;67.36
68609;SHT31;55581;46.718;7.690;2023-06-22T13:16:35;23.98;68.78
68609;SHT31;55581;46.718;7.690;2023-06-22T13:19:00;24.12;69.09
68609;SHT31;55581;46.718;7.690;2023-06-22T13:21:26;24.18;69.80
68609;SHT31;55581;46.718;7.690;2023-06-22T13:23:51;24.32;68.41
68609;SHT31;55581;46.718;7.690;2023-06-22T13:26:17;24.32;71.54
68609;SHT31;55581;46.718;7.690;2023-06-22T13:28:42;24.33;69.19
68609;SHT31;55581;46.718;7.690;2023-06-22T13:31:08;24.62;66.23
68609;SHT31;55581;46.718;7.690;2023-06-22T13:33:33;24.79;66.35
68609;SHT31;55581;46.718;7.690;2023-06-22T13:35:59;24.88;68.85
68609;SHT31;55581;46.718;7.690;2023-06-22T13:38:24;25.43;70.02
68609;SHT31;55581;46.718;7.690;2023-06-22T13:40:50;25.93;68.74
68609;SHT31;55581;46.718;7.690;2023-06-22T13:43:16;26.47;67.43
68609;SHT31;55581;46.718;7.690;2023-06-22T13:45:42;26.71;63.63
68609;SHT31;55581;46.718;7.690;2023-06-22T13:48:08;27.06;61.87
68609;SHT31;55581;46.718;7.690;2023-06-22T13:50:36;27.47;60.67
68609;SHT31;55581;46.718;7.690;2023-06-22T13:53:01;27.35;61.14
68609;SHT31;55581;46.718;7.690;2023-06-22T13:55:27;27.23;57.81
68609;SHT31;55581;46.718;7.690;2023-06-22T13:57:56;26.94;59.46
68609;SHT31;55581;46.718;7.690;2023-06-22T14:00:21;26.63;61.21
68609;SHT31;55581;46.718;7.690;2023-06-22T14:02:46;26.48;63.36
68609;SHT31;55581;46.718;7.690;2023-06-22T14:05:12;26.30;65.41
68609;SHT31;55581;46.718;7.690;2023-06-22T14:07:37;26.04;66.17
68609;SHT31;55581;46.718;7.690;2023-06-22T14:10:03;25.66;70.60
68609;SHT31;55581;46.718;7.690;2023-06-22T14:12:29;25.15;71.00
68609;SHT31;55581;46.718;7.690;2023-06-22T14:14:55;24.82;72.71
68609;SHT31;55581;46.718;7.690;2023-06-22T14:17:20;24.59;73.32
68609;SHT31;55581;46.718;7.690;2023-06-22T14:19:50;24.30;73.46
68609;SHT31;55581;46.718;7.690;2023-06-22T14:22:21;24.00;75.88
68609;SHT31;55581;46.718;7.690;2023-06-22T14:24:49;23.67;76.89
68609;SHT31;55581;46.718;7.690;2023-06-22T14:27:15;23.53;79.44
68609;SHT31;55581;46.718;7.690;2023-06-22T14:29:41;23.22;79.53
68609;SHT31;55581;46.718;7.690;2023-06-22T14:32:07;23.09;80.27
68609;SHT31;55581;46.718;7.690;2023-06-22T14:34:34;22.73;82.35
68609;SHT31;55581;46.718;7.690;2023-06-22T14:37:01;22.84;82.19
68609;SHT31;55581;46.718;7.690;2023-06-22T14:39:27;22.54;80.99
68609;SHT31;55581;46.718;7.690;2023-06-22T14:41:52;22.32;82.16
68609;SHT31;55581;46.718;7.690;2023-06-22T14:44:18;21.97;82.90
68609;SHT31;55581;46.718;7.690;2023-06-22T14:46:43;21.81;84.10
68609;SHT31;55581;46.718;7.690;2023-06-22T14:49:09;21.78;83.81
68609;SHT31;55581;46.718;7.690;2023-06-22T14:51:34;21.74;84.69
68609;SHT31;55581;46.718;7.690;2023-06-22T14:53:59;21.78;85.30
68609;SHT31;55581;46.718;7.690;2023-06-22T14:56:25;21.68;83.40
68609;SHT31;55581;46.718;7.690;2023-06-22T14:58:50;21.60;81.46
68609;SHT31;55581;46.718;7.690;2023-06-22T15:01:18;21.51;78.24
68609;SHT31;55581;46.718;7.690;2023-06-22T15:03:44;21.40;75.96
68609;SHT31;55581;46.718;7.690;2023-06-22T15:06:10;21.25;78.34
68609;SHT31;55581;46.718;7.690;2023-06-22T15:08:39;21.00;79.76
68609;SHT31;55581;46.718;7.690;2023-06-22T15:11:04;20.75;81.17
68609;SHT31;55581;46.718;7.690;2023-06-22T15:13:31;20.48;80.37
68609;SHT31;55581;46.718;7.690;2023-06-22T15:16:03;20.44;81.10
68609;SHT31;55581;46.718;7.690;2023-06-22T15:18:29;20.23;82.12
68609;SHT31;55581;46.718;7.690;2023-06-22T15:20:55;20.19;84.48
68609;SHT31;55581;46.718;7.690;2023-06-22T15:23:20;20.15;80.99
68609;SHT31;55581;46.718;7.690;2023-06-22T15:25:46;20.16;81.84
68609;SHT31;55581;46.718;7.690;2023-06-22T15:28:12;20.24;83.57
68609;SHT31;55581;46.718;7.690;2023-06-22T15:30:37;20.30;83.43
68609;SHT31;55581;46.718;7.690;2023-06-22T15:33:03;20.27;86.44
68609;SHT31;55581;46.718;7.690;2023-06-22T15:35:28;20.09;85.77
68609;SHT31;55581;46.718;7.690;2023-06-22T15:37:54;20.20;84.28